createdAt,value
2019-03-08T00:00:36.918Z,983.04
2019-03-08T00:01:36.972Z,983.04
2019-03-08T00:02:36.897Z,983.12
2019-03-08T00:03:36.882Z,983.03
2019-03-08T00:04:36.869Z,983.16
2019-03-08T00:05:36.835Z,983.24
2019-03-08T00:06:36.822Z,983.27
2019-03-08T00:07:36.933Z,983.10
2019-03-08T00:08:36.790Z,983.32
2019-03-08T00:09:36.761Z,983.21
2019-03-08T00:10:36.744Z,983.16
2019-03-08T00:11:36.733Z,983.30
2019-03-08T00:12:36.689Z,983.36
2019-03-08T00:13:36.691Z,983.23
2019-03-08T00:14:36.679Z,983.28
2019-03-08T00:15:36.656Z,983.26
2019-03-08T00:16:36.635Z,983.19
2019-03-08T00:17:36.607Z,983.25
2019-03-08T00:18:36.629Z,983.11
2019-03-08T00:19:36.580Z,983.20
2019-03-08T00:20:36.565Z,983.18
2019-03-08T00:21:36.522Z,983.19
2019-03-08T00:22:36.500Z,983.25
2019-03-08T00:23:36.536Z,983.21
2019-03-08T00:24:36.483Z,983.17
2019-03-08T00:25:36.465Z,983.31
2019-03-08T00:26:36.445Z,983.17
2019-03-08T00:27:36.424Z,983.18
2019-03-08T00:28:36.403Z,983.23
2019-03-08T00:29:36.449Z,983.17
2019-03-08T00:30:36.363Z,983.20
2019-03-08T00:31:36.352Z,983.15
2019-03-08T00:32:36.308Z,983.20
2019-03-08T00:33:36.314Z,983.21
2019-03-08T00:34:36.423Z,983.26
2019-03-08T00:35:36.260Z,983.17
2019-03-08T00:36:36.252Z,983.19
2019-03-08T00:37:36.247Z,983.20
2019-03-08T00:38:36.221Z,983.16
2019-03-08T00:39:36.199Z,983.16
2019-03-08T00:40:36.190Z,983.23
2019-03-08T00:41:36.154Z,983.18
2019-03-08T00:42:36.152Z,983.00
2019-03-08T00:43:36.115Z,983.23
2019-03-08T00:44:36.080Z,983.25
2019-03-08T00:45:36.139Z,983.15
2019-03-08T00:46:36.061Z,983.19
2019-03-08T00:47:36.047Z,983.03
2019-03-08T00:48:36.027Z,983.25
2019-03-08T00:49:36.007Z,983.39
2019-03-08T00:50:35.967Z,983.26
2019-03-08T00:51:35.969Z,983.38
2019-03-08T00:52:35.940Z,983.43
2019-03-08T00:53:35.919Z,983.31
2019-03-08T00:54:35.897Z,983.40
2019-03-08T00:55:35.906Z,983.47
2019-03-08T00:56:35.902Z,983.37
2019-03-08T00:57:35.883Z,983.42
2019-03-08T00:58:35.836Z,983.38
2019-03-08T00:59:35.807Z,983.40
2019-03-08T01:00:35.800Z,983.44
2019-03-08T01:01:35.807Z,983.42
2019-03-08T01:02:35.875Z,983.54
2019-03-08T01:03:35.746Z,983.49
2019-03-08T01:04:35.723Z,983.49
2019-03-08T01:05:35.691Z,983.58
2019-03-08T01:06:35.683Z,983.48
2019-03-08T01:07:35.807Z,983.54
2019-03-08T01:08:35.635Z,983.61
2019-03-08T01:09:35.605Z,983.52
2019-03-08T01:10:35.590Z,983.72
2019-03-08T01:11:35.569Z,983.76
2019-03-08T01:12:35.565Z,983.67
2019-03-08T01:13:35.549Z,983.62
2019-03-08T01:14:35.508Z,983.77
2019-03-08T01:15:35.518Z,983.78
2019-03-08T01:16:35.484Z,983.71
2019-03-08T01:17:35.490Z,983.80
2019-03-08T01:18:35.446Z,983.72
2019-03-08T01:19:35.465Z,983.70
2019-03-08T01:20:35.396Z,983.73
2019-03-08T01:21:35.373Z,983.72
2019-03-08T01:22:35.361Z,983.72
2019-03-08T01:23:35.363Z,983.82
2019-03-08T01:24:35.348Z,983.73
2019-03-08T01:25:35.296Z,983.81
2019-03-08T01:26:35.298Z,983.69
2019-03-08T01:27:35.273Z,983.60
2019-03-08T01:28:35.249Z,983.79
2019-03-08T01:29:35.250Z,983.63
2019-03-08T01:30:35.205Z,983.79
2019-03-08T01:31:35.182Z,983.70
2019-03-08T01:32:35.174Z,983.87
2019-03-08T01:33:35.152Z,983.83
2019-03-08T01:34:35.167Z,983.75
2019-03-08T01:35:35.165Z,983.78
2019-03-08T01:36:35.109Z,983.78
2019-03-08T01:37:35.089Z,983.72
2019-03-08T01:38:35.066Z,983.81
2019-03-08T01:39:35.039Z,983.71
2019-03-08T01:40:35.107Z,983.68
2019-03-08T01:41:34.990Z,983.74
2019-03-08T01:42:34.973Z,983.72
2019-03-08T01:43:34.965Z,983.84
2019-03-08T01:44:34.955Z,983.72
2019-03-08T01:45:34.970Z,983.62
2019-03-08T01:46:34.914Z,983.81
2019-03-08T01:47:34.890Z,983.91
2019-03-08T01:48:34.875Z,983.74
2019-03-08T01:49:34.855Z,983.71
2019-03-08T01:50:34.831Z,983.87
2019-03-08T01:51:34.819Z,983.76
2019-03-08T01:52:34.780Z,983.73
2019-03-08T01:53:34.776Z,983.93
2019-03-08T01:54:34.742Z,983.89
2019-03-08T01:55:34.739Z,984.11
2019-03-08T01:56:34.749Z,983.79
2019-03-08T01:57:34.714Z,983.84
2019-03-08T01:58:34.669Z,983.71
2019-03-08T01:59:34.659Z,983.81
2019-03-08T02:00:34.674Z,983.94
2019-03-08T02:01:34.615Z,984.00
2019-03-08T02:02:34.607Z,984.02
2019-03-08T02:03:34.585Z,983.94
2019-03-08T02:04:34.575Z,983.98
2019-03-08T02:05:34.538Z,984.15
2019-03-08T02:06:34.548Z,983.91
2019-03-08T02:07:34.510Z,983.72
2019-03-08T02:08:34.472Z,984.07
2019-03-08T02:09:34.450Z,984.09
2019-03-08T02:10:34.463Z,984.12
2019-03-08T02:11:34.418Z,984.13
2019-03-08T02:12:34.405Z,984.08
2019-03-08T02:13:34.382Z,984.10
2019-03-08T02:14:34.374Z,984.16
2019-03-08T02:15:34.367Z,984.11
2019-03-08T02:16:34.353Z,984.17
2019-03-08T02:17:34.319Z,984.12
2019-03-08T02:18:34.303Z,984.13
2019-03-08T02:19:34.284Z,984.22
2019-03-08T02:20:34.254Z,984.22
2019-03-08T02:21:34.271Z,984.24
2019-03-08T02:22:34.202Z,984.51
2019-03-08T02:23:34.198Z,984.29
2019-03-08T02:24:34.184Z,984.49
2019-03-08T02:25:34.151Z,984.15
2019-03-08T02:26:34.172Z,984.46
2019-03-08T02:27:34.182Z,984.47
2019-03-08T02:28:34.086Z,984.48
2019-03-08T02:29:34.082Z,984.40
2019-03-08T02:30:34.068Z,984.61
2019-03-08T02:31:34.053Z,984.54
2019-03-08T02:32:34.009Z,984.51
2019-03-08T02:33:34.022Z,984.65
2019-03-08T02:34:33.993Z,984.54
2019-03-08T02:35:33.970Z,984.55
2019-03-08T02:36:33.933Z,984.60
2019-03-08T02:37:33.949Z,984.47
2019-03-08T02:38:33.911Z,984.56
2019-03-08T02:39:33.876Z,984.52
2019-03-08T02:40:33.858Z,983.89
2019-03-08T02:41:33.856Z,984.70
2019-03-08T02:42:33.829Z,984.54
2019-03-08T02:43:33.846Z,984.57
2019-03-08T02:44:33.777Z,984.70
2019-03-08T02:45:33.771Z,984.61
2019-03-08T02:46:33.758Z,984.64
2019-03-08T02:47:33.733Z,984.58
2019-03-08T02:48:33.730Z,984.55
2019-03-08T02:49:33.710Z,984.57
2019-03-08T02:50:33.686Z,984.67
2019-03-08T02:51:33.647Z,984.59
2019-03-08T02:52:33.634Z,984.73
2019-03-08T02:53:33.638Z,984.66
2019-03-08T02:54:34.483Z,984.73
2019-03-08T02:55:33.587Z,984.83
2019-03-08T02:56:33.575Z,984.75
2019-03-08T02:57:33.558Z,984.80
2019-03-08T02:58:33.553Z,984.65
2019-03-08T02:59:33.501Z,984.62
2019-03-08T03:00:33.495Z,984.84
2019-03-08T03:01:33.477Z,984.44
2019-03-08T03:02:33.430Z,984.87
2019-03-08T03:03:33.425Z,984.79
2019-03-08T03:04:33.419Z,984.80
2019-03-08T03:05:33.405Z,984.83
2019-03-08T03:06:33.379Z,984.85
2019-03-08T03:07:33.341Z,984.78
2019-03-08T03:08:33.337Z,984.88
2019-03-08T03:09:33.295Z,984.80
2019-03-08T03:10:33.437Z,984.94
2019-03-08T03:11:33.266Z,984.82
2019-03-08T03:12:33.250Z,985.19
2019-03-08T03:13:33.237Z,984.95
2019-03-08T03:14:33.198Z,985.09
2019-03-08T03:15:33.191Z,984.95
2019-03-08T03:16:33.213Z,984.96
2019-03-08T03:17:33.155Z,985.16
2019-03-08T03:18:33.168Z,984.98
2019-03-08T03:19:33.113Z,985.07
2019-03-08T03:20:33.087Z,985.00
2019-03-08T03:21:33.149Z,985.22
2019-03-08T03:22:33.066Z,985.13
2019-03-08T03:23:33.050Z,985.23
2019-03-08T03:24:33.027Z,985.32
2019-03-08T03:25:32.990Z,985.25
2019-03-08T03:26:32.970Z,985.23
2019-03-08T03:27:32.990Z,985.23
2019-03-08T03:28:32.982Z,985.22
2019-03-08T03:29:32.910Z,985.32
2019-03-08T03:30:32.911Z,985.27
2019-03-08T03:31:32.895Z,985.30
2019-03-08T03:32:32.929Z,985.40
2019-03-08T03:33:32.831Z,985.24
2019-03-08T03:34:32.831Z,985.29
2019-03-08T03:35:32.801Z,985.40
2019-03-08T03:36:32.771Z,985.50
2019-03-08T03:37:32.768Z,985.43
2019-03-08T03:38:32.764Z,985.42
2019-03-08T03:39:32.737Z,985.38
2019-03-08T03:40:32.717Z,985.52
2019-03-08T03:41:32.689Z,985.90
2019-03-08T03:42:32.668Z,985.95
2019-03-08T03:43:32.668Z,985.68
2019-03-08T03:44:32.631Z,985.60
2019-03-08T03:45:32.616Z,985.82
2019-03-08T03:46:32.599Z,985.70
2019-03-08T03:47:32.578Z,985.60
2019-03-08T03:48:32.563Z,985.64
2019-03-08T03:49:32.545Z,985.60
2019-03-08T03:50:32.515Z,985.61
2019-03-08T03:51:32.505Z,985.86
2019-03-08T03:52:32.474Z,985.81
2019-03-08T03:53:32.494Z,985.92
2019-03-08T03:54:32.424Z,985.79
2019-03-08T03:55:32.425Z,985.86
2019-03-08T03:56:32.406Z,985.96
2019-03-08T03:57:32.388Z,985.84
2019-03-08T03:58:32.374Z,985.80
2019-03-08T03:59:32.351Z,985.84
2019-03-08T04:00:32.332Z,985.87
2019-03-08T04:01:32.299Z,985.94
2019-03-08T04:02:32.269Z,985.87
2019-03-08T04:03:32.412Z,986.10
2019-03-08T04:04:32.240Z,985.75
2019-03-08T04:05:32.218Z,986.18
2019-03-08T04:06:32.218Z,986.00
2019-03-08T04:07:32.182Z,986.12
2019-03-08T04:08:32.177Z,986.08
2019-03-08T04:09:32.450Z,986.10
2019-03-08T04:10:32.265Z,986.19
2019-03-08T04:11:32.106Z,986.30
2019-03-08T04:12:32.089Z,986.18
2019-03-08T04:13:32.081Z,986.11
2019-03-08T04:14:32.051Z,986.28
2019-03-08T04:15:32.037Z,986.03
2019-03-08T04:16:32.040Z,986.31
2019-03-08T04:17:31.990Z,986.33
2019-03-08T04:18:31.966Z,986.31
2019-03-08T04:19:31.990Z,986.35
2019-03-08T04:20:31.955Z,986.58
2019-03-08T04:21:31.922Z,986.41
2019-03-08T04:22:31.904Z,986.12
2019-03-08T04:23:31.891Z,986.45
2019-03-08T04:24:31.849Z,986.53
2019-03-08T04:25:31.911Z,986.46
2019-03-08T04:26:31.823Z,986.55
2019-03-08T04:27:31.802Z,986.52
2019-03-08T04:28:31.779Z,986.51
2019-03-08T04:29:31.763Z,986.43
2019-03-08T04:30:31.746Z,986.63
2019-03-08T04:31:31.756Z,986.63
2019-03-08T04:32:31.701Z,986.58
2019-03-08T04:33:31.706Z,986.60
2019-03-08T04:34:31.661Z,986.67
2019-03-08T04:35:31.687Z,986.66
2019-03-08T04:36:31.774Z,986.77
2019-03-08T04:37:31.615Z,986.75
2019-03-08T04:38:31.604Z,986.81
2019-03-08T04:39:31.598Z,986.80
2019-03-08T04:40:31.568Z,986.91
2019-03-08T04:41:31.533Z,986.92
2019-03-08T04:42:31.544Z,987.02
2019-03-08T04:43:31.481Z,986.67
2019-03-08T04:44:31.477Z,986.95
2019-03-08T04:45:31.466Z,987.00
2019-03-08T04:46:31.424Z,987.15
2019-03-08T04:47:31.547Z,987.06
2019-03-08T04:48:31.411Z,986.95
2019-03-08T04:49:31.375Z,987.04
2019-03-08T04:50:31.349Z,986.94
2019-03-08T04:51:31.350Z,987.18
2019-03-08T04:52:31.310Z,987.08
2019-03-08T04:53:31.308Z,987.09
2019-03-08T04:54:31.295Z,987.16
2019-03-08T04:55:31.273Z,987.19
2019-03-08T04:56:31.261Z,987.20
2019-03-08T04:57:31.240Z,987.30
2019-03-08T04:58:31.255Z,986.85
2019-03-08T04:59:31.190Z,987.26
2019-03-08T05:00:31.186Z,987.27
2019-03-08T05:01:31.159Z,987.15
2019-03-08T05:02:31.127Z,987.27
2019-03-08T05:03:31.138Z,987.39
2019-03-08T05:04:31.114Z,987.10
2019-03-08T05:05:31.062Z,987.33
2019-03-08T05:06:31.061Z,987.39
2019-03-08T05:07:31.051Z,987.29
2019-03-08T05:08:31.047Z,987.04
2019-03-08T05:09:30.994Z,987.38
2019-03-08T05:10:31.019Z,987.45
2019-03-08T05:11:30.971Z,987.57
2019-03-08T05:12:31.103Z,987.54
2019-03-08T05:13:30.967Z,987.49
2019-03-08T05:14:30.910Z,987.51
2019-03-08T05:15:30.889Z,987.47
2019-03-08T05:16:30.865Z,987.59
2019-03-08T05:17:30.874Z,987.37
2019-03-08T05:18:32.914Z,987.50
2019-03-08T05:19:30.836Z,987.74
2019-03-08T05:20:30.777Z,987.61
2019-03-08T05:21:30.824Z,987.56
2019-03-08T05:22:30.758Z,987.73
2019-03-08T05:23:30.757Z,987.88
2019-03-08T05:24:30.728Z,987.64
2019-03-08T05:25:30.730Z,987.76
2019-03-08T05:26:30.685Z,987.79
2019-03-08T05:27:30.664Z,987.87
2019-03-08T05:28:30.645Z,987.91
2019-03-08T05:29:30.670Z,988.30
2019-03-08T05:30:30.584Z,987.85
2019-03-08T05:31:30.593Z,987.92
2019-03-08T05:32:30.573Z,987.91
2019-03-08T05:33:30.557Z,987.92
2019-03-08T05:34:30.533Z,988.09
2019-03-08T05:35:30.667Z,988.04
2019-03-08T05:36:30.485Z,988.03
2019-03-08T05:37:30.470Z,988.17
2019-03-08T05:38:30.457Z,987.57
2019-03-08T05:39:30.415Z,988.17
2019-03-08T05:40:30.412Z,988.16
2019-03-08T05:41:30.411Z,988.13
2019-03-08T05:42:30.385Z,988.08
2019-03-08T05:43:30.364Z,988.17
2019-03-08T05:44:30.329Z,988.22
2019-03-08T05:45:30.299Z,988.24
2019-03-08T05:46:30.325Z,988.26
2019-03-08T05:47:30.263Z,988.01
2019-03-08T05:48:30.251Z,988.20
2019-03-08T05:49:30.222Z,988.28
2019-03-08T05:50:30.229Z,988.49
2019-03-08T05:51:30.220Z,988.43
2019-03-08T05:52:30.246Z,988.54
2019-03-08T05:53:30.149Z,988.49
2019-03-08T05:54:30.127Z,988.54
2019-03-08T05:55:30.106Z,988.49
2019-03-08T05:56:30.104Z,988.47
2019-03-08T05:57:30.071Z,988.67
2019-03-08T05:58:30.079Z,988.55
2019-03-08T05:59:30.065Z,988.63
2019-03-08T06:00:34.571Z,988.82
2019-03-08T06:01:30.024Z,988.78
2019-03-08T06:02:29.979Z,988.74
2019-03-08T06:03:29.982Z,988.79
2019-03-08T06:04:29.953Z,988.83
2019-03-08T06:05:29.917Z,988.95
2019-03-08T06:06:29.919Z,988.96
2019-03-08T06:07:29.903Z,988.77
2019-03-08T06:08:29.907Z,988.86
2019-03-08T06:09:29.860Z,988.75
2019-03-08T06:10:29.849Z,988.98
2019-03-08T06:11:29.818Z,989.12
2019-03-08T06:12:29.783Z,989.04
2019-03-08T06:13:29.810Z,988.84
2019-03-08T06:14:29.759Z,989.13
2019-03-08T06:15:29.763Z,989.15
2019-03-08T06:16:29.727Z,989.14
2019-03-08T06:17:29.713Z,989.25
2019-03-08T06:18:29.674Z,989.21
2019-03-08T06:19:29.703Z,989.27
2019-03-08T06:20:29.644Z,989.37
2019-03-08T06:21:29.659Z,989.38
2019-03-08T06:22:29.614Z,989.26
2019-03-08T06:23:29.576Z,989.43
2019-03-08T06:24:29.566Z,989.46
2019-03-08T06:25:29.561Z,989.31
2019-03-08T06:26:29.545Z,989.50
2019-03-08T06:27:29.539Z,989.69
2019-03-08T06:28:29.494Z,989.62
2019-03-08T06:29:29.474Z,989.64
2019-03-08T06:30:29.452Z,989.64
2019-03-08T06:31:29.460Z,989.70
2019-03-08T06:32:29.413Z,989.77
2019-03-08T06:33:29.408Z,989.81
2019-03-08T06:34:29.376Z,989.85
2019-03-08T06:35:29.376Z,989.81
2019-03-08T06:36:29.325Z,989.82
2019-03-08T06:37:29.338Z,989.83
2019-03-08T06:38:29.280Z,989.87
2019-03-08T06:39:29.310Z,990.02
2019-03-08T06:40:29.300Z,989.95
2019-03-08T06:41:29.226Z,990.04
2019-03-08T06:42:29.231Z,990.02
2019-03-08T06:43:29.196Z,990.07
2019-03-08T06:44:29.192Z,989.99
2019-03-08T06:45:29.165Z,990.03
2019-03-08T06:46:29.176Z,990.28
2019-03-08T06:47:29.125Z,990.39
2019-03-08T06:48:29.111Z,990.42
2019-03-08T06:49:29.096Z,990.30
2019-03-08T06:50:29.063Z,990.31
2019-03-08T06:51:29.041Z,990.26
2019-03-08T06:52:29.039Z,990.33
2019-03-08T06:53:29.088Z,990.42
2019-03-08T06:54:28.975Z,990.45
2019-03-08T06:55:28.971Z,990.45
2019-03-08T06:56:28.940Z,990.34
2019-03-08T06:57:28.917Z,990.51
2019-03-08T06:58:28.909Z,990.57
2019-03-08T06:59:28.934Z,990.44
2019-03-08T07:00:28.878Z,990.59
2019-03-08T07:01:28.857Z,990.59
2019-03-08T07:02:30.264Z,990.61
2019-03-08T07:03:28.823Z,990.75
2019-03-08T07:04:28.870Z,990.83
2019-03-08T07:05:28.780Z,990.75
2019-03-08T07:06:28.775Z,990.99
2019-03-08T07:07:28.737Z,990.92
2019-03-08T07:08:28.732Z,990.90
2019-03-08T07:09:28.704Z,990.99
2019-03-08T07:10:28.722Z,990.96
2019-03-08T07:11:28.660Z,991.03
2019-03-08T07:12:28.657Z,991.11
2019-03-08T07:13:28.640Z,990.95
2019-03-08T07:14:28.605Z,991.22
2019-03-08T07:15:28.608Z,991.33
2019-03-08T07:16:28.569Z,991.19
2019-03-08T07:17:28.554Z,991.20
2019-03-08T07:18:28.539Z,991.33
2019-03-08T07:19:28.510Z,991.36
2019-03-08T07:20:28.532Z,991.42
2019-03-08T07:21:28.475Z,991.43
2019-03-08T07:22:28.449Z,991.53
2019-03-08T07:23:28.462Z,991.52
2019-03-08T07:24:28.427Z,991.58
2019-03-08T07:25:28.443Z,991.63
2019-03-08T07:26:28.390Z,991.51
2019-03-08T07:27:28.356Z,991.70
2019-03-08T07:28:28.330Z,991.73
2019-03-08T07:29:28.326Z,991.75
2019-03-08T07:30:28.294Z,991.81
2019-03-08T07:31:28.306Z,991.77
2019-03-08T07:32:28.253Z,991.90
2019-03-08T07:33:28.223Z,991.83
2019-03-08T07:34:28.206Z,991.99
2019-03-08T07:35:28.210Z,991.88
2019-03-08T07:36:28.219Z,992.00
2019-03-08T07:37:28.309Z,992.00
2019-03-08T07:38:28.146Z,991.97
2019-03-08T07:39:28.130Z,992.10
2019-03-08T07:40:28.112Z,992.07
2019-03-08T07:41:28.895Z,992.17
2019-03-08T07:42:28.075Z,992.24
2019-03-08T07:43:28.082Z,992.14
2019-03-08T07:44:28.029Z,992.32
2019-03-08T07:45:28.013Z,992.31
2019-03-08T07:46:28.006Z,992.43
2019-03-08T07:47:27.970Z,992.38
2019-03-08T07:48:27.938Z,992.41
2019-03-08T07:49:27.940Z,992.39
2019-03-08T07:50:27.920Z,992.45
2019-03-08T07:51:27.921Z,992.59
2019-03-08T07:52:27.870Z,992.39
2019-03-08T07:53:27.865Z,992.65
2019-03-08T07:54:27.972Z,992.61
2019-03-08T07:55:27.846Z,992.52
2019-03-08T07:56:27.851Z,992.70
2019-03-08T07:57:28.190Z,992.72
2019-03-08T07:58:27.765Z,992.73
2019-03-08T07:59:27.777Z,992.59
2019-03-08T08:00:27.730Z,992.73
2019-03-08T08:01:27.714Z,992.78
2019-03-08T08:02:27.701Z,992.79
2019-03-08T08:03:27.661Z,992.87
2019-03-08T08:04:27.647Z,992.94
2019-03-08T08:05:27.639Z,992.97
2019-03-08T08:06:27.594Z,992.90
2019-03-08T08:07:27.618Z,993.09
2019-03-08T08:08:27.611Z,993.06
2019-03-08T08:09:27.544Z,993.09
2019-03-08T08:10:27.537Z,993.18
2019-03-08T08:11:27.510Z,993.20
2019-03-08T08:12:27.495Z,993.20
2019-03-08T08:13:27.460Z,993.25
2019-03-08T08:14:27.523Z,993.23
2019-03-08T08:15:27.429Z,993.34
2019-03-08T08:16:27.421Z,993.31
2019-03-08T08:17:27.394Z,993.38
2019-03-08T08:18:27.375Z,993.46
2019-03-08T08:19:27.376Z,993.38
2019-03-08T08:20:27.348Z,993.33
2019-03-08T08:21:27.314Z,993.41
2019-03-08T08:22:27.304Z,993.53
2019-03-08T08:23:34.021Z,993.60
2019-03-08T08:24:27.269Z,993.55
2019-03-08T08:25:33.934Z,993.67
2019-03-08T08:26:27.242Z,993.56
2019-03-08T08:27:27.189Z,993.63
2019-03-08T08:28:27.193Z,993.54
2019-03-08T08:29:34.788Z,993.69
2019-03-08T08:30:27.170Z,993.68
2019-03-08T08:31:27.138Z,993.77
2019-03-08T08:32:27.101Z,993.83
2019-03-08T08:33:27.074Z,993.84
2019-03-08T08:34:27.056Z,993.87
2019-03-08T08:35:27.070Z,993.85
2019-03-08T08:36:27.040Z,993.84
2019-03-08T08:37:27.045Z,993.88
2019-03-08T08:38:27.024Z,993.91
2019-03-08T08:39:27.018Z,993.87
2019-03-08T08:40:26.996Z,993.87
2019-03-08T08:41:26.938Z,993.87
2019-03-08T08:42:26.926Z,994.07
2019-03-08T08:43:26.894Z,994.04
2019-03-08T08:44:26.878Z,994.01
2019-03-08T08:45:26.906Z,994.12
2019-03-08T08:46:26.839Z,994.04
2019-03-08T08:47:26.828Z,994.22
2019-03-08T08:48:26.815Z,994.20
2019-03-08T08:49:26.840Z,994.24
2019-03-08T08:50:26.755Z,994.21
2019-03-08T08:51:26.743Z,994.21
2019-03-08T08:52:26.733Z,994.17
2019-03-08T08:53:26.726Z,994.24
2019-03-08T08:54:26.715Z,994.28
2019-03-08T08:55:26.684Z,994.12
2019-03-08T08:56:26.651Z,994.26
2019-03-08T08:57:26.646Z,994.29
2019-03-08T08:58:26.622Z,994.21
2019-03-08T08:59:26.618Z,994.29
2019-03-08T09:00:26.589Z,994.33
2019-03-08T09:01:26.598Z,994.33
2019-03-08T09:02:26.590Z,994.37
2019-03-08T09:03:26.533Z,994.39
2019-03-08T09:04:26.517Z,994.37
2019-03-08T09:05:26.488Z,994.38
2019-03-08T09:06:26.457Z,994.42
2019-03-08T09:07:26.459Z,994.44
2019-03-08T09:08:26.427Z,994.50
2019-03-08T09:09:26.412Z,994.54
2019-03-08T09:10:26.388Z,994.60
2019-03-08T09:11:26.387Z,994.43
2019-03-08T09:12:26.341Z,994.61
2019-03-08T09:13:26.330Z,994.50
2019-03-08T09:14:26.329Z,994.60
2019-03-08T09:15:26.300Z,994.60
2019-03-08T09:16:26.297Z,994.62
2019-03-08T09:17:26.263Z,994.59
2019-03-08T09:18:26.239Z,994.62
2019-03-08T09:19:26.209Z,994.70
2019-03-08T09:20:26.201Z,994.63
2019-03-08T09:21:26.243Z,994.67
2019-03-08T09:22:26.179Z,994.70
2019-03-08T09:23:26.150Z,994.77
2019-03-08T09:24:26.138Z,994.88
2019-03-08T09:25:26.095Z,994.88
2019-03-08T09:26:26.093Z,994.89
2019-03-08T09:27:26.111Z,994.82
2019-03-08T09:28:26.053Z,994.91
2019-03-08T09:29:26.045Z,995.05
2019-03-08T09:30:26.006Z,995.03
2019-03-08T09:31:25.995Z,995.02
2019-03-08T09:32:26.011Z,995.12
2019-03-08T09:33:25.982Z,995.08
2019-03-08T09:34:25.956Z,995.09
2019-03-08T09:35:25.944Z,995.09
2019-03-08T09:36:25.922Z,995.13
2019-03-08T09:37:25.890Z,995.15
2019-03-08T09:38:26.024Z,995.24
2019-03-08T09:39:25.856Z,995.19
2019-03-08T09:40:25.820Z,995.22
2019-03-08T09:41:25.798Z,995.21
2019-03-08T09:42:25.785Z,995.24
2019-03-08T09:43:25.781Z,995.20
2019-03-08T09:44:25.798Z,995.25
2019-03-08T09:45:25.728Z,995.30
2019-03-08T09:46:25.717Z,995.29
2019-03-08T09:47:25.712Z,995.33
2019-03-08T09:48:25.726Z,995.32
2019-03-08T09:49:25.682Z,995.35
2019-03-08T09:50:25.642Z,995.34
2019-03-08T09:51:25.646Z,995.44
2019-03-08T09:52:25.603Z,995.44
2019-03-08T09:53:25.671Z,995.52
2019-03-08T09:54:25.580Z,995.47
2019-03-08T09:55:25.571Z,995.50
2019-03-08T09:56:25.547Z,995.46
2019-03-08T09:57:25.524Z,995.37
2019-03-08T09:58:25.510Z,995.47
2019-03-08T09:59:27.356Z,995.51
2019-03-08T10:00:25.485Z,995.41
2019-03-08T10:01:25.467Z,995.52
2019-03-08T10:02:25.452Z,995.63
2019-03-08T10:03:25.419Z,995.74
2019-03-08T10:04:25.421Z,995.73
2019-03-08T10:05:25.382Z,995.57
2019-03-08T10:06:25.358Z,995.69
2019-03-08T10:07:25.351Z,995.81
2019-03-08T10:08:25.342Z,995.83
2019-03-08T10:09:25.355Z,995.87
2019-03-08T10:10:25.314Z,995.88
2019-03-08T10:11:25.280Z,995.85
2019-03-08T10:12:25.252Z,995.92
2019-03-08T10:13:25.249Z,996.02
2019-03-08T10:14:25.317Z,996.03
2019-03-08T10:15:25.289Z,996.05
2019-03-08T10:16:25.215Z,996.09
2019-03-08T10:17:25.178Z,996.14
2019-03-08T10:18:25.167Z,996.12
2019-03-08T10:19:25.131Z,996.13
2019-03-08T10:20:25.126Z,996.11
2019-03-08T10:21:25.148Z,996.11
2019-03-08T10:22:25.105Z,996.18
2019-03-08T10:23:25.066Z,996.24
2019-03-08T10:24:25.046Z,996.31
2019-03-08T10:25:25.036Z,996.41
2019-03-08T10:26:25.034Z,996.27
2019-03-08T10:27:24.985Z,996.29
2019-03-08T10:28:24.981Z,996.26
2019-03-08T10:29:24.973Z,996.27
2019-03-08T10:30:24.947Z,996.26
2019-03-08T10:31:24.955Z,996.28
2019-03-08T10:32:24.908Z,996.35
2019-03-08T10:33:24.873Z,996.21
2019-03-08T10:34:24.863Z,996.23
2019-03-08T10:35:24.848Z,996.30
2019-03-08T10:36:24.858Z,996.30
2019-03-08T10:37:24.822Z,996.34
2019-03-08T10:38:24.775Z,996.21
2019-03-08T10:39:24.776Z,996.36
2019-03-08T10:40:24.748Z,996.44
2019-03-08T10:41:24.780Z,996.41
2019-03-08T10:42:24.786Z,996.47
2019-03-08T10:43:24.705Z,996.37
2019-03-08T10:44:24.689Z,996.49
2019-03-08T10:45:24.674Z,996.58
2019-03-08T10:46:24.650Z,996.34
2019-03-08T10:47:24.670Z,996.53
2019-03-08T10:48:24.634Z,996.48
2019-03-08T10:49:24.587Z,996.60
2019-03-08T10:50:24.587Z,996.61
2019-03-08T10:51:24.538Z,996.56
2019-03-08T10:52:24.543Z,996.63
2019-03-08T10:53:24.554Z,996.66
2019-03-08T10:54:24.479Z,996.69
2019-03-08T10:55:24.480Z,996.74
2019-03-08T10:56:24.473Z,996.69
2019-03-08T10:57:24.457Z,996.73
2019-03-08T10:58:24.410Z,996.73
2019-03-08T10:59:24.397Z,996.66
2019-03-08T11:00:24.405Z,996.56
2019-03-08T11:01:24.382Z,996.72
2019-03-08T11:02:24.358Z,996.81
2019-03-08T11:03:24.384Z,996.83
2019-03-08T11:04:24.320Z,996.91
2019-03-08T11:05:24.303Z,997.02
2019-03-08T11:06:24.277Z,996.92
2019-03-08T11:07:24.270Z,996.90
2019-03-08T11:08:29.788Z,997.02
2019-03-08T11:09:24.222Z,997.04
2019-03-08T11:10:24.205Z,997.06
2019-03-08T11:11:24.194Z,997.12
2019-03-08T11:12:24.170Z,997.14
2019-03-08T11:13:24.151Z,997.15
2019-03-08T11:14:24.147Z,997.16
2019-03-08T11:15:24.948Z,997.08
2019-03-08T11:16:25.049Z,997.12
2019-03-08T11:17:24.064Z,997.04
2019-03-08T11:18:24.064Z,997.13
2019-03-08T11:19:24.049Z,997.27
2019-03-08T11:20:24.015Z,997.11
2019-03-08T11:21:24.006Z,997.14
2019-03-08T11:22:23.990Z,997.26
2019-03-08T11:23:23.972Z,997.24
2019-03-08T11:24:23.966Z,997.31
2019-03-08T11:25:24.015Z,997.35
2019-03-08T11:26:23.923Z,997.28
2019-03-08T11:27:23.912Z,997.29
2019-03-08T11:28:23.882Z,997.25
2019-03-08T11:29:23.859Z,997.20
2019-03-08T11:30:23.849Z,997.22
2019-03-08T11:31:23.848Z,997.24
2019-03-08T11:32:23.806Z,997.35
2019-03-08T11:33:23.781Z,997.46
2019-03-08T11:34:25.383Z,997.41
2019-03-08T11:35:23.766Z,997.41
2019-03-08T11:36:23.733Z,997.32
2019-03-08T11:37:23.807Z,997.43
2019-03-08T11:38:23.693Z,997.52
2019-03-08T11:39:23.740Z,997.34
2019-03-08T11:40:23.670Z,997.83
2019-03-08T11:41:23.661Z,997.47
2019-03-08T11:42:23.645Z,997.54
2019-03-08T11:43:23.636Z,997.63
2019-03-08T11:44:23.610Z,997.58
2019-03-08T11:45:23.594Z,997.62
2019-03-08T11:46:23.588Z,997.73
2019-03-08T11:47:23.578Z,997.71
2019-03-08T11:48:23.545Z,997.71
2019-03-08T11:49:23.516Z,997.74
2019-03-08T11:50:23.509Z,997.60
2019-03-08T11:51:23.493Z,997.79
2019-03-08T11:52:23.493Z,997.62
2019-03-08T11:53:23.470Z,997.72
2019-03-08T11:54:23.421Z,997.84
2019-03-08T11:55:23.416Z,997.88
2019-03-08T11:56:23.387Z,998.16
2019-03-08T11:57:23.379Z,997.65
2019-03-08T11:58:23.432Z,997.94
2019-03-08T11:59:23.348Z,997.80
2019-03-08T12:00:23.327Z,997.80
2019-03-08T12:01:23.317Z,998.06
2019-03-08T12:02:23.280Z,997.92
2019-03-08T12:03:23.285Z,997.65
2019-03-08T12:04:23.300Z,997.84
2019-03-08T12:05:23.258Z,997.87
2019-03-08T12:06:23.228Z,997.83
2019-03-08T12:07:23.215Z,997.86
2019-03-08T12:08:23.216Z,997.91
2019-03-08T12:09:23.163Z,997.91
2019-03-08T12:10:23.172Z,998.11
2019-03-08T12:11:23.144Z,998.07
2019-03-08T12:12:23.144Z,997.82
2019-03-08T12:13:23.090Z,997.83
2019-03-08T12:14:23.130Z,997.91
2019-03-08T12:15:23.069Z,997.84
2019-03-08T12:16:23.057Z,997.92
2019-03-08T12:17:23.040Z,997.82
2019-03-08T12:18:23.021Z,997.85
2019-03-08T12:19:23.037Z,997.89
2019-03-08T12:20:23.022Z,997.92
2019-03-08T12:21:22.962Z,997.98
2019-03-08T12:22:22.959Z,997.93
2019-03-08T12:23:22.950Z,997.94
2019-03-08T12:24:22.932Z,997.94
2019-03-08T12:25:22.903Z,997.90
2019-03-08T12:26:23.034Z,997.94
2019-03-08T12:27:22.856Z,997.99
2019-03-08T12:28:22.864Z,997.92